createdAt,value
2019-02-10T00:00:36.066Z,79.98
2019-02-10T00:03:06.378Z,79.94
2019-02-10T00:05:37.025Z,79.58
2019-02-10T00:08:07.626Z,80.46
2019-02-10T00:10:38.391Z,80.09
2019-02-10T00:13:32.014Z,79.47
2019-02-10T00:16:04.519Z,78.85
2019-02-10T00:18:35.219Z,77.56
2019-02-10T00:21:05.713Z,77.65
2019-02-10T00:23:36.385Z,78.78
2019-02-10T00:26:07.168Z,79.08
2019-02-10T00:28:37.698Z,78.41
2019-02-10T00:31:08.080Z,77.87
2019-02-10T00:33:38.797Z,77.88
2019-02-10T00:36:09.374Z,77.02
2019-02-10T00:38:39.698Z,76.93
2019-02-10T00:41:10.142Z,76.94
2019-02-10T00:43:40.461Z,77.28
2019-02-10T00:46:11.131Z,77.02
2019-02-10T00:48:41.808Z,77.85
2019-02-10T00:51:12.088Z,77.50
2019-02-10T00:53:42.628Z,77.43
2019-02-10T00:56:13.313Z,78.49
2019-02-10T00:58:43.772Z,78.44
2019-02-10T01:01:14.377Z,77.16
2019-02-10T01:03:45.057Z,78.45
2019-02-10T01:06:15.327Z,79.66
2019-02-10T01:08:45.911Z,79.79
2019-02-10T01:11:16.291Z,78.77
2019-02-10T01:13:46.610Z,79.82
2019-02-10T01:16:17.004Z,78.83
2019-02-10T01:19:08.300Z,77.58
2019-02-10T01:21:40.098Z,77.69
2019-02-10T01:24:10.438Z,77.51
2019-02-10T01:26:41.177Z,77.63
2019-02-10T01:29:11.813Z,78.18
2019-02-10T01:31:42.108Z,78.31
2019-02-10T01:34:12.919Z,77.61
2019-02-10T01:36:49.520Z,77.50
2019-02-10T01:39:19.146Z,76.30
2019-02-10T01:41:49.507Z,76.61
2019-02-10T01:44:20.429Z,76.57
2019-02-10T01:46:50.730Z,76.61
2019-02-10T01:49:21.616Z,76.62
2019-02-10T01:51:51.986Z,76.69
2019-02-10T01:54:22.779Z,77.07
2019-02-10T01:56:53.370Z,76.93
2019-02-10T01:59:25.617Z,76.74
2019-02-10T02:01:56.336Z,77.15
2019-02-10T02:04:27.076Z,76.71
2019-02-10T02:06:58.127Z,76.83
2019-02-10T02:09:28.511Z,77.13
2019-02-10T02:11:58.909Z,76.80
2019-02-10T02:14:29.300Z,77.37
2019-02-10T02:16:59.619Z,76.42
2019-02-10T02:19:30.187Z,76.55
2019-02-10T02:22:00.882Z,76.72
2019-02-10T02:24:31.493Z,76.96
2019-02-10T02:27:02.024Z,77.66
2019-02-10T02:29:32.444Z,79.09
2019-02-10T02:32:02.965Z,78.20
2019-02-10T02:34:33.235Z,79.23
2019-02-10T02:37:07.949Z,78.76
2019-02-10T02:39:35.632Z,78.43
2019-02-10T02:42:05.942Z,79.38
2019-02-10T02:44:36.251Z,79.29
2019-02-10T02:47:06.423Z,78.99
2019-02-10T02:49:36.839Z,79.02
2019-02-10T02:52:07.607Z,79.31
2019-02-10T02:54:38.012Z,79.73
2019-02-10T02:57:08.333Z,79.79
2019-02-10T02:59:39.021Z,79.18
2019-02-10T03:02:09.341Z,78.84
2019-02-10T03:04:39.719Z,78.25
2019-02-10T03:07:17.687Z,78.06
2019-02-10T03:09:42.422Z,78.17
2019-02-10T03:12:12.751Z,78.98
2019-02-10T03:14:43.390Z,81.07
2019-02-10T03:17:14.065Z,80.93
2019-02-10T03:19:44.340Z,81.34
2019-02-10T03:22:15.036Z,81.57
2019-02-10T03:24:45.353Z,82.03
2019-02-10T03:27:15.951Z,81.27
2019-02-10T03:29:46.454Z,81.08
2019-02-10T03:32:16.782Z,81.70
2019-02-10T03:34:47.427Z,81.88
2019-02-10T03:37:26.643Z,81.19
2019-02-10T03:39:49.816Z,81.03
2019-02-10T03:42:20.589Z,81.83
2019-02-10T03:44:51.388Z,81.35
2019-02-10T03:47:22.270Z,81.96
2019-02-10T03:49:52.764Z,82.16
2019-02-10T03:52:23.394Z,82.11
2019-02-10T03:54:53.798Z,81.80
2019-02-10T03:57:24.541Z,81.11
2019-02-10T03:59:54.867Z,81.03
2019-02-10T04:02:25.643Z,81.20
2019-02-10T04:04:56.092Z,81.15
2019-02-10T04:07:26.356Z,80.75
2019-02-10T04:09:56.754Z,80.97
2019-02-10T04:12:27.530Z,80.51
2019-02-10T04:14:57.853Z,80.71
2019-02-10T04:17:28.159Z,81.36
2019-02-10T04:19:58.858Z,80.81
2019-02-10T04:22:29.122Z,81.48
2019-02-10T04:24:59.446Z,80.76
2019-02-10T04:27:30.096Z,80.55
2019-02-10T04:30:00.654Z,80.43
2019-02-10T04:32:31.292Z,80.64
2019-02-10T04:35:01.630Z,81.31
2019-02-10T04:37:31.904Z,82.12
2019-02-10T04:40:02.273Z,81.81
2019-02-10T04:42:32.605Z,81.06
2019-02-10T04:45:02.915Z,81.40
2019-02-10T04:47:33.516Z,81.05
2019-02-10T04:50:04.298Z,81.35
2019-02-10T04:52:34.688Z,81.01
2019-02-10T04:55:05.523Z,80.64
2019-02-10T04:57:36.180Z,81.30
2019-02-10T05:00:07.617Z,81.60
2019-02-10T05:02:38.115Z,81.56
2019-02-10T05:05:08.557Z,80.90
2019-02-10T05:07:39.221Z,81.21
2019-02-10T05:10:09.581Z,80.70
2019-02-10T05:12:39.933Z,80.67
2019-02-10T05:15:10.669Z,80.49
2019-02-10T05:17:41.312Z,80.07
2019-02-10T05:20:11.678Z,80.82
2019-02-10T05:22:42.268Z,81.46
2019-02-10T05:25:13.014Z,80.35
2019-02-10T05:27:43.287Z,80.26
2019-02-10T05:30:13.712Z,80.11
2019-02-10T05:32:44.373Z,79.92
2019-02-10T05:35:14.736Z,79.69
2019-02-10T05:37:45.045Z,79.09
2019-02-10T05:40:15.701Z,79.74
2019-02-10T05:42:46.132Z,79.17
2019-02-10T05:45:16.506Z,79.29
2019-02-10T05:47:47.031Z,78.96
2019-02-10T05:50:17.544Z,79.21
2019-02-10T05:52:47.840Z,79.39
2019-02-10T05:55:18.508Z,79.23
2019-02-10T05:57:49.323Z,79.08
2019-02-10T06:00:19.698Z,80.17
2019-02-10T06:02:50.133Z,80.49
2019-02-10T06:05:22.781Z,80.04
2019-02-10T06:07:53.592Z,79.79
2019-02-10T06:10:24.175Z,80.54
2019-02-10T06:12:54.497Z,79.17
2019-02-10T06:15:25.381Z,79.85
2019-02-10T06:17:56.115Z,79.25
2019-02-10T06:20:26.424Z,79.42
2019-02-10T06:22:57.059Z,79.51
2019-02-10T06:25:27.715Z,79.49
2019-02-10T06:27:58.002Z,79.36
2019-02-10T06:30:28.560Z,78.35
2019-02-10T06:33:00.113Z,78.46
2019-02-10T06:35:30.424Z,77.58
2019-02-10T06:38:00.953Z,77.85
2019-02-10T06:40:31.395Z,77.97
2019-02-10T06:43:02.277Z,76.66
2019-02-10T06:45:32.853Z,76.84
2019-02-10T06:48:03.239Z,76.70
2019-02-10T06:50:33.794Z,76.80
2019-02-10T06:53:04.546Z,77.20
2019-02-10T06:55:34.933Z,76.80
2019-02-10T06:58:05.479Z,75.54
2019-02-10T07:01:00.988Z,75.97
2019-02-10T07:03:52.427Z,75.23
2019-02-10T07:06:24.925Z,74.39
2019-02-10T07:08:55.401Z,74.68
2019-02-10T07:11:26.160Z,73.66
2019-02-10T07:13:59.103Z,71.61
2019-02-10T07:16:50.177Z,72.35
2019-02-10T07:20:12.777Z,72.18
2019-02-10T07:23:21.393Z,70.32
2019-02-10T07:25:53.815Z,71.09
2019-02-10T07:29:09.478Z,70.63
2019-02-10T07:32:07.880Z,70.33
2019-02-10T07:35:19.949Z,69.03
2019-02-10T07:38:20.858Z,67.97
2019-02-10T07:41:07.899Z,68.20
2019-02-10T07:44:46.480Z,67.96
2019-02-10T07:47:51.788Z,68.01
2019-02-10T07:50:44.816Z,66.48
2019-02-10T07:53:41.398Z,65.39
2019-02-10T07:56:58.050Z,64.63
2019-02-10T07:59:44.531Z,63.83
2019-02-10T08:03:06.440Z,62.42
2019-02-10T08:05:59.850Z,62.40
2019-02-10T08:09:16.341Z,62.18
2019-02-10T08:11:57.839Z,61.55
2019-02-10T08:15:24.478Z,61.21
2019-02-10T08:18:23.231Z,60.35
2019-02-10T08:21:34.501Z,60.17
2019-02-10T08:24:37.287Z,59.55
2019-02-10T08:27:25.880Z,59.33
2019-02-10T08:30:35.670Z,58.17
2019-02-10T08:33:44.755Z,57.67
2019-02-10T08:36:50.999Z,57.75
2019-02-10T08:40:02.967Z,57.24
2019-02-10T08:43:35.618Z,57.30
2019-02-10T08:46:24.711Z,55.65
2019-02-10T08:49:20.313Z,55.17
2019-02-10T08:52:15.245Z,54.68
2019-02-10T08:54:45.633Z,54.63
2019-02-10T08:57:16.103Z,53.01
2019-02-10T08:59:46.696Z,53.29
2019-02-10T09:02:17.203Z,53.80
2019-02-10T09:04:47.877Z,53.00
2019-02-10T09:07:18.384Z,52.78
2019-02-10T09:09:48.825Z,53.17
2019-02-10T09:12:19.494Z,53.50
2019-02-10T09:14:49.803Z,52.34
2019-02-10T09:17:20.509Z,52.49
2019-02-10T09:19:51.148Z,52.79
2019-02-10T09:22:21.455Z,52.69
2019-02-10T09:24:52.275Z,52.56
2019-02-10T09:27:23.022Z,51.98
2019-02-10T09:29:53.285Z,51.30
2019-02-10T09:32:23.979Z,50.35
2019-02-10T09:34:54.619Z,48.54
2019-02-10T09:37:25.316Z,47.29
2019-02-10T09:39:56.021Z,46.29
2019-02-10T09:42:26.615Z,44.71
2019-02-10T09:44:56.928Z,43.88
2019-02-10T09:47:27.644Z,42.19
2019-02-10T09:49:57.936Z,40.71
2019-02-10T09:52:28.265Z,38.57
2019-02-10T09:54:58.787Z,36.83
2019-02-10T09:57:29.441Z,36.50
2019-02-10T10:00:00.025Z,36.55
2019-02-10T10:02:30.810Z,35.01
2019-02-10T10:05:01.409Z,33.66
2019-02-10T10:07:31.829Z,33.17
2019-02-10T10:10:02.571Z,32.72
2019-02-10T10:12:33.342Z,31.72
2019-02-10T10:15:03.732Z,32.37
2019-02-10T10:17:34.187Z,32.71
2019-02-10T10:20:05.322Z,32.58
2019-02-10T10:22:35.810Z,29.76
2019-02-10T10:25:07.331Z,30.75
2019-02-10T10:27:37.760Z,29.32
2019-02-10T10:30:10.521Z,28.73
2019-02-10T10:32:40.945Z,29.33
2019-02-10T10:35:11.754Z,31.23
2019-02-10T10:37:42.266Z,31.52
2019-02-10T10:40:13.329Z,31.26
2019-02-10T10:42:43.634Z,31.75
2019-02-10T10:45:13.961Z,30.99
2019-02-10T10:47:44.808Z,31.47
2019-02-10T10:50:15.438Z,31.70
2019-02-10T10:52:46.041Z,32.35
2019-02-10T10:55:16.518Z,32.83
2019-02-10T10:57:46.870Z,32.12
2019-02-10T11:00:17.268Z,31.97
2019-02-10T11:02:48.287Z,31.92
2019-02-10T11:05:18.939Z,32.04
2019-02-10T11:07:49.241Z,30.89
2019-02-10T11:10:19.795Z,32.54
2019-02-10T11:12:51.068Z,31.74
2019-02-10T11:15:21.775Z,31.84
2019-02-10T11:17:52.315Z,32.20
2019-02-10T11:20:22.714Z,32.00
2019-02-10T11:22:53.515Z,31.77
2019-02-10T11:25:24.204Z,31.37
2019-02-10T11:27:54.510Z,30.47
2019-02-10T11:30:25.196Z,30.08
2019-02-10T11:32:56.168Z,30.83
2019-02-10T11:35:26.452Z,30.28
2019-02-10T11:37:56.926Z,30.53
2019-02-10T11:40:27.595Z,30.35
2019-02-10T11:42:57.904Z,30.72
2019-02-10T11:45:28.578Z,31.25
2019-02-10T11:47:58.887Z,31.00
2019-02-10T11:50:29.490Z,30.84
2019-02-10T11:52:59.910Z,30.32
2019-02-10T11:55:30.274Z,30.90
2019-02-10T11:58:01.752Z,30.30
2019-02-10T12:00:32.556Z,30.34
2019-02-10T12:03:02.896Z,30.73
2019-02-10T12:05:33.187Z,29.38
2019-02-10T12:08:03.873Z,29.54
2019-02-10T12:10:34.130Z,29.29
2019-02-10T12:13:04.588Z,29.36
2019-02-10T12:15:35.289Z,29.41
2019-02-10T12:18:05.930Z,29.55
2019-02-10T12:20:36.472Z,29.58
2019-02-10T12:23:06.855Z,29.33
2019-02-10T12:25:37.153Z,29.35
2019-02-10T12:28:07.754Z,28.78
2019-02-10T12:30:38.029Z,28.98
2019-02-10T12:33:08.469Z,29.58
2019-02-10T12:35:39.160Z,29.50
2019-02-10T12:38:09.652Z,28.69
2019-02-10T12:40:39.937Z,28.47
2019-02-10T12:43:10.666Z,28.56
2019-02-10T12:45:41.360Z,28.87
2019-02-10T12:48:11.689Z,29.27
2019-02-10T12:50:42.221Z,28.71
2019-02-10T12:53:12.530Z,29.19
2019-02-10T12:55:42.934Z,29.58
2019-02-10T12:58:13.278Z,28.39
2019-02-10T13:00:43.605Z,28.04
2019-02-10T13:03:14.153Z,28.63
2019-02-10T13:05:44.612Z,27.22
2019-02-10T13:08:14.884Z,26.98
2019-02-10T13:10:45.633Z,26.54
2019-02-10T13:13:19.298Z,26.37
2019-02-10T13:15:48.422Z,26.52
2019-02-10T13:18:19.010Z,26.60
2019-02-10T13:20:49.393Z,26.94
2019-02-10T13:23:20.063Z,26.14
2019-02-10T13:25:50.689Z,25.76
2019-02-10T13:28:20.997Z,24.77
2019-02-10T13:30:51.725Z,25.62
2019-02-10T13:33:23.665Z,26.28
2019-02-10T13:35:53.974Z,25.71
2019-02-10T13:38:24.467Z,25.01
2019-02-10T13:40:55.127Z,25.26
2019-02-10T13:43:33.217Z,24.08
2019-02-10T13:45:57.535Z,24.59
2019-02-10T13:48:28.267Z,24.55
2019-02-10T13:50:58.591Z,23.34
2019-02-10T13:53:29.293Z,24.36
2019-02-10T13:55:59.565Z,24.02
2019-02-10T13:58:30.180Z,24.26
2019-02-10T14:01:00.846Z,24.46
2019-02-10T14:03:31.169Z,25.35
2019-02-10T14:06:01.478Z,24.94
2019-02-10T14:08:32.494Z,25.63
2019-02-10T14:11:02.780Z,25.37
2019-02-10T14:13:33.483Z,25.37
2019-02-10T14:16:04.137Z,25.54
2019-02-10T14:18:34.505Z,26.04
2019-02-10T14:21:04.799Z,26.25
2019-02-10T14:23:35.236Z,25.93
2019-02-10T14:26:06.843Z,25.67
2019-02-10T14:28:37.367Z,26.19
2019-02-10T14:31:08.139Z,26.14
2019-02-10T14:33:39.246Z,25.48
2019-02-10T14:36:09.639Z,25.84
2019-02-10T14:38:40.214Z,24.47
2019-02-10T14:41:10.764Z,24.98
2019-02-10T14:43:41.210Z,25.13
2019-02-10T14:46:11.515Z,25.44
2019-02-10T14:48:42.287Z,24.28
2019-02-10T14:51:12.585Z,24.41
2019-02-10T14:53:42.972Z,24.63
2019-02-10T14:56:13.651Z,24.33
2019-02-10T14:58:44.170Z,24.62
2019-02-10T15:01:14.798Z,24.78
2019-02-10T15:03:45.442Z,25.00
2019-02-10T15:06:18.652Z,25.30
2019-02-10T15:08:49.087Z,24.93
2019-02-10T15:11:19.466Z,25.21
2019-02-10T15:13:49.804Z,25.07
2019-02-10T15:16:20.324Z,26.28
2019-02-10T15:18:51.818Z,26.77
2019-02-10T15:21:22.112Z,27.68
2019-02-10T15:23:52.780Z,28.73
2019-02-10T15:26:23.375Z,29.57
2019-02-10T15:28:53.838Z,29.84
2019-02-10T15:31:24.183Z,30.51
2019-02-10T15:33:54.684Z,30.89
2019-02-10T15:36:25.520Z,30.75
2019-02-10T15:38:56.207Z,31.25
2019-02-10T15:41:26.534Z,31.30
2019-02-10T15:43:57.273Z,33.37
2019-02-10T15:46:27.734Z,34.10
2019-02-10T15:48:58.286Z,34.66
2019-02-10T15:51:36.973Z,35.99
2019-02-10T15:54:01.500Z,37.26
2019-02-10T15:56:31.948Z,38.64
2019-02-10T15:59:02.479Z,39.00
2019-02-10T16:01:32.864Z,39.20
2019-02-10T16:04:03.742Z,41.51
2019-02-10T16:06:34.507Z,41.40
2019-02-10T16:09:05.662Z,44.33
2019-02-10T16:11:36.504Z,45.33
2019-02-10T16:14:07.086Z,46.20
2019-02-10T16:16:37.372Z,47.37
2019-02-10T16:19:07.762Z,47.15
2019-02-10T16:21:38.711Z,47.86
2019-02-10T16:24:09.168Z,48.88
2019-02-10T16:26:39.453Z,49.60
2019-02-10T16:29:10.168Z,50.02
2019-02-10T16:31:40.467Z,50.26
2019-02-10T16:34:11.508Z,50.73
2019-02-10T16:36:41.881Z,50.62
2019-02-10T16:39:13.005Z,51.01
2019-02-10T16:41:45.845Z,50.90
2019-02-10T16:44:16.124Z,51.19
2019-02-10T16:46:46.451Z,51.72
2019-02-10T16:49:17.325Z,52.34
2019-02-10T16:51:47.815Z,52.90
2019-02-10T16:54:18.259Z,53.31
2019-02-10T16:56:48.640Z,53.70
2019-02-10T16:59:19.222Z,53.62
2019-02-10T17:01:49.555Z,53.66
2019-02-10T17:04:20.238Z,53.52
2019-02-10T17:06:50.571Z,53.58
2019-02-10T17:09:21.214Z,53.94
2019-02-10T17:11:51.527Z,54.09
2019-02-10T17:14:21.852Z,53.70
2019-02-10T17:16:52.292Z,53.90
2019-02-10T17:19:22.939Z,54.28
2019-02-10T17:21:53.202Z,54.06
2019-02-10T17:24:23.979Z,53.73
2019-02-10T17:26:54.790Z,53.90
2019-02-10T17:29:25.088Z,54.24
2019-02-10T17:31:55.745Z,54.88
2019-02-10T17:34:26.377Z,54.56
2019-02-10T17:36:56.662Z,54.98
2019-02-10T17:39:27.103Z,54.73
2019-02-10T17:41:57.487Z,54.79
2019-02-10T17:44:28.104Z,55.12
2019-02-10T17:46:58.488Z,55.39
2019-02-10T17:49:29.001Z,55.49
2019-02-10T17:51:59.442Z,56.05
2019-02-10T17:54:30.223Z,56.39
2019-02-10T17:57:00.533Z,56.16
2019-02-10T17:59:32.241Z,56.02
2019-02-10T18:02:02.793Z,55.62
2019-02-10T18:04:37.520Z,54.87
2019-02-10T18:07:05.181Z,55.67
2019-02-10T18:09:35.978Z,56.20
2019-02-10T18:12:06.412Z,55.42
2019-02-10T18:14:54.392Z,54.17
2019-02-10T18:17:36.112Z,54.25
2019-02-10T18:20:25.788Z,54.22
2019-02-10T18:23:18.503Z,54.18
2019-02-10T18:25:56.001Z,52.45
2019-02-10T18:28:44.193Z,51.51
2019-02-10T18:31:34.111Z,53.24
2019-02-10T18:34:23.354Z,52.27
2019-02-10T18:37:15.724Z,52.00
2019-02-10T18:40:05.306Z,52.02
2019-02-10T18:42:51.720Z,51.32
2019-02-10T18:45:41.057Z,50.70
2019-02-10T18:48:28.034Z,51.91
2019-02-10T18:51:07.178Z,52.07
2019-02-10T18:53:51.986Z,51.95
2019-02-10T18:56:50.043Z,53.35
2019-02-10T18:59:39.603Z,54.50
2019-02-10T19:02:27.935Z,53.65
2019-02-10T19:05:06.520Z,52.94
2019-02-10T19:07:59.116Z,54.47
2019-02-10T19:11:03.377Z,54.91
2019-02-10T19:13:48.188Z,53.73
2019-02-10T19:16:32.789Z,52.39
2019-02-10T19:19:20.385Z,54.19
2019-02-10T19:21:59.412Z,53.19
2019-02-10T19:24:51.805Z,53.30
2019-02-10T19:27:43.718Z,52.79
2019-02-10T19:30:31.929Z,52.29
2019-02-10T19:33:13.847Z,53.85
2019-02-10T19:35:57.831Z,55.54
2019-02-10T19:38:44.881Z,55.57
2019-02-10T19:41:34.134Z,53.79
2019-02-10T19:44:16.067Z,52.50
2019-02-10T19:47:01.983Z,55.58
2019-02-10T19:49:54.177Z,57.67
2019-02-10T19:53:01.600Z,55.35
2019-02-10T19:55:56.943Z,54.04
2019-02-10T19:58:38.450Z,54.80
2019-02-10T20:01:18.348Z,55.21
2019-02-10T20:03:59.978Z,55.07
2019-02-10T20:06:36.184Z,55.00
2019-02-10T20:09:25.802Z,57.93
2019-02-10T20:12:24.113Z,58.54
2019-02-10T20:15:16.000Z,57.63
2019-02-10T20:18:05.518Z,55.39
2019-02-10T20:21:01.478Z,56.40
2019-02-10T20:23:50.722Z,56.17
2019-02-10T20:26:40.563Z,56.19
2019-02-10T20:29:25.922Z,55.58
2019-02-10T20:32:27.430Z,55.16
2019-02-10T20:35:19.993Z,55.71
2019-02-10T20:38:08.174Z,55.36
2019-02-10T20:40:57.879Z,55.75
2019-02-10T20:43:57.544Z,57.09
2019-02-10T20:46:50.682Z,56.48
2019-02-10T20:49:43.138Z,55.42
2019-02-10T20:52:21.111Z,56.49
2019-02-10T20:55:19.255Z,57.46
2019-02-10T20:58:07.514Z,56.71
2019-02-10T21:01:06.260Z,57.42
2019-02-10T21:03:50.373Z,58.08
2019-02-10T21:06:48.946Z,58.02
2019-02-10T21:09:44.410Z,59.41
2019-02-10T21:12:37.041Z,60.53
2019-02-10T21:15:30.041Z,61.21
2019-02-10T21:18:18.286Z,61.83
2019-02-10T21:20:55.282Z,61.95
2019-02-10T21:23:47.991Z,61.82
2019-02-10T21:26:43.260Z,62.91
2019-02-10T21:29:31.499Z,62.46
2019-02-10T21:32:10.817Z,61.70
2019-02-10T21:34:55.086Z,62.56
2019-02-10T21:37:47.296Z,63.63
2019-02-10T21:40:42.839Z,64.01
2019-02-10T21:43:35.560Z,63.52
2019-02-10T21:46:28.400Z,65.83
2019-02-10T21:49:05.291Z,65.35
2019-02-10T21:51:36.932Z,62.85
2019-02-10T21:54:07.442Z,64.13
2019-02-10T21:56:37.940Z,66.56
2019-02-10T21:59:08.505Z,65.53
2019-02-10T22:01:39.151Z,64.78
2019-02-10T22:04:09.470Z,64.41
2019-02-10T22:06:39.818Z,64.37
2019-02-10T22:09:10.382Z,66.84
2019-02-10T22:11:41.279Z,66.69
2019-02-10T22:14:11.569Z,65.76
2019-02-10T22:16:42.231Z,67.05
2019-02-10T22:19:12.549Z,68.16
2019-02-10T22:21:43.286Z,66.82
2019-02-10T22:24:13.782Z,67.38
2019-02-10T22:26:44.109Z,67.76
2019-02-10T22:29:15.879Z,68.36
2019-02-10T22:31:46.423Z,69.40
2019-02-10T22:34:16.692Z,68.75
2019-02-10T22:36:47.093Z,70.00
2019-02-10T22:39:17.719Z,69.00
2019-02-10T22:41:47.989Z,69.51
2019-02-10T22:44:18.566Z,68.85
2019-02-10T22:46:49.070Z,68.43
2019-02-10T22:49:19.589Z,68.42
2019-02-10T22:51:50.129Z,69.48
2019-02-10T22:54:20.573Z,70.73
2019-02-10T22:56:51.283Z,70.49
2019-02-10T22:59:21.971Z,70.95
2019-02-10T23:01:52.295Z,69.79
2019-02-10T23:04:22.715Z,70.51
2019-02-10T23:06:53.320Z,71.00
2019-02-10T23:09:24.522Z,70.38
2019-02-10T23:11:54.839Z,72.16
2019-02-10T23:14:25.581Z,73.69
2019-02-10T23:16:55.881Z,74.66
2019-02-10T23:19:26.240Z,74.54
2019-02-10T23:21:56.911Z,73.30
2019-02-10T23:24:27.511Z,72.78
2019-02-10T23:26:57.906Z,73.38
2019-02-10T23:29:29.766Z,72.57
2019-02-10T23:32:00.255Z,73.45
2019-02-10T23:34:30.595Z,74.97
2019-02-10T23:37:01.027Z,75.09
2019-02-10T23:39:31.862Z,75.30
2019-02-10T23:42:02.197Z,75.78
2019-02-10T23:44:32.646Z,76.48
2019-02-10T23:47:03.422Z,75.59
2019-02-10T23:49:33.944Z,75.90
2019-02-10T23:52:04.283Z,75.52
2019-02-10T23:54:34.843Z,75.87
2019-02-10T23:57:05.554Z,75.11
2019-02-10T23:59:36.178Z,75.08
